sensor_id;sensor_type;location;lat;lon;timestamp;P1;durP1;ratioP1;P2;durP2;ratioP2
56045;SDS011;41913;51.030;3.706;2024-03-23T00:53:53;4.38;;;1.58;;
56045;SDS011;41913;51.030;3.706;2024-03-23T00:56:22;2.47;;;1.77;;
56045;SDS011;41913;51.030;3.706;2024-03-23T00:58:51;3.35;;;1.40;;
56045;SDS011;41913;51.030;3.706;2024-03-23T01:01:17;4.55;;;1.48;;
56045;SDS011;41913;51.030;3.706;2024-03-23T01:03:43;2.72;;;1.75;;
56045;SDS011;41913;51.030;3.706;2024-03-23T01:06:09;3.78;;;1.65;;
56045;SDS011;41913;51.030;3.706;2024-03-23T01:08:41;1.55;;;1.40;;
56045;SDS011;41913;51.030;3.706;2024-03-23T01:11:07;2.38;;;1.63;;
56045;SDS011;41913;51.030;3.706;2024-03-23T01:13:33;5.18;;;1.92;;
56045;SDS011;41913;51.030;3.706;2024-03-23T01:15:59;1.40;;;1.23;;
56045;SDS011;41913;51.030;3.706;2024-03-23T01:18:25;3.67;;;1.58;;
56045;SDS011;41913;51.030;3.706;2024-03-23T01:20:54;2.95;;;1.88;;
56045;SDS011;41913;51.030;3.706;2024-03-23T01:23:20;3.03;;;1.30;;
56045;SDS011;41913;51.030;3.706;2024-03-23T01:25:52;2.13;;;1.45;;
56045;SDS011;41913;51.030;3.706;2024-03-23T01:30:44;2.00;;;1.60;;
56045;SDS011;41913;51.030;3.706;2024-03-23T01:33:10;3.20;;;1.75;;
56045;SDS011;41913;51.030;3.706;2024-03-23T01:35:36;3.88;;;1.77;;
56045;SDS011;41913;51.030;3.706;2024-03-23T01:38:02;1.75;;;1.65;;
56045;SDS011;41913;51.030;3.706;2024-03-23T01:40:28;1.80;;;1.40;;
56045;SDS011;41913;51.030;3.706;2024-03-23T01:45:23;2.15;;;1.52;;
56045;SDS011;41913;51.030;3.706;2024-03-23T01:47:50;4.60;;;1.90;;
56045;SDS011;41913;51.030;3.706;2024-03-23T01:50:17;3.53;;;1.50;;
56045;SDS011;41913;51.030;3.706;2024-03-23T01:52:43;1.95;;;1.50;;
56045;SDS011;41913;51.030;3.706;2024-03-23T01:55:09;2.25;;;1.55;;
56045;SDS011;41913;51.030;3.706;2024-03-23T01:57:35;1.52;;;1.42;;
56045;SDS011;41913;51.030;3.706;2024-03-23T02:00:03;2.80;;;2.08;;
56045;SDS011;41913;51.030;3.706;2024-03-23T02:02:29;2.40;;;1.95;;
56045;SDS011;41913;51.030;3.706;2024-03-23T02:04:55;2.05;;;1.50;;
56045;SDS011;41913;51.030;3.706;2024-03-23T02:07:21;3.35;;;1.67;;
56045;SDS011;41913;51.030;3.706;2024-03-23T02:09:49;6.45;;;2.03;;
56045;SDS011;41913;51.030;3.706;2024-03-23T02:12:15;2.97;;;1.48;;
56045;SDS011;41913;51.030;3.706;2024-03-23T02:14:42;2.83;;;1.67;;
56045;SDS011;41913;51.030;3.706;2024-03-23T02:17:08;2.28;;;1.60;;
56045;SDS011;41913;51.030;3.706;2024-03-23T02:19:34;3.00;;;1.45;;
56045;SDS011;41913;51.030;3.706;2024-03-23T02:22:00;2.67;;;1.40;;
56045;SDS011;41913;51.030;3.706;2024-03-23T02:24:26;3.40;;;1.90;;
56045;SDS011;41913;51.030;3.706;2024-03-23T02:26:54;3.50;;;1.42;;
56045;SDS011;41913;51.030;3.706;2024-03-23T02:29:20;2.25;;;1.63;;
56045;SDS011;41913;51.030;3.706;2024-03-23T02:31:45;3.03;;;1.77;;
56045;SDS011;41913;51.030;3.706;2024-03-23T02:34:11;1.75;;;1.65;;
56045;SDS011;41913;51.030;3.706;2024-03-23T02:36:37;2.25;;;1.50;;
56045;SDS011;41913;51.030;3.706;2024-03-23T02:39:03;2.75;;;1.25;;
56045;SDS011;41913;51.030;3.706;2024-03-23T02:41:30;2.25;;;1.33;;
56045;SDS011;41913;51.030;3.706;2024-03-23T02:43:56;3.67;;;1.30;;
56045;SDS011;41913;51.030;3.706;2024-03-23T02:46:21;3.30;;;1.30;;
56045;SDS011;41913;51.030;3.706;2024-03-23T02:48:50;2.53;;;1.45;;
56045;SDS011;41913;51.030;3.706;2024-03-23T02:51:16;2.75;;;1.75;;
56045;SDS011;41913;51.030;3.706;2024-03-23T02:53:41;1.50;;;1.20;;
56045;SDS011;41913;51.030;3.706;2024-03-23T02:56:07;2.80;;;1.23;;
56045;SDS011;41913;51.030;3.706;2024-03-23T02:58:33;2.67;;;1.63;;
56045;SDS011;41913;51.030;3.706;2024-03-23T03:00:59;1.52;;;1.42;;
56045;SDS011;41913;51.030;3.706;2024-03-23T03:03:25;3.05;;;1.33;;
56045;SDS011;41913;51.030;3.706;2024-03-23T03:05:57;2.30;;;1.63;;
56045;SDS011;41913;51.030;3.706;2024-03-23T03:08:23;1.73;;;1.20;;
56045;SDS011;41913;51.030;3.706;2024-03-23T03:10:49;2.22;;;1.20;;
56045;SDS011;41913;51.030;3.706;2024-03-23T03:13:14;2.85;;;1.65;;
56045;SDS011;41913;51.030;3.706;2024-03-23T03:15:41;3.60;;;1.85;;
56045;SDS011;41913;51.030;3.706;2024-03-23T03:18:08;2.47;;;1.05;;
56045;SDS011;41913;51.030;3.706;2024-03-23T03:20:37;1.83;;;1.58;;
56045;SDS011;41913;51.030;3.706;2024-03-23T03:23:04;6.45;;;1.92;;
56045;SDS011;41913;51.030;3.706;2024-03-23T03:25:30;3.13;;;1.40;;
56045;SDS011;41913;51.030;3.706;2024-03-23T03:27:56;8.65;;;1.38;;
56045;SDS011;41913;51.030;3.706;2024-03-23T03:30:22;3.20;;;1.50;;
56045;SDS011;41913;51.030;3.706;2024-03-23T03:32:48;3.47;;;1.58;;
56045;SDS011;41913;51.030;3.706;2024-03-23T03:35:15;3.15;;;1.90;;
56045;SDS011;41913;51.030;3.706;2024-03-23T03:37:41;3.13;;;1.40;;
56045;SDS011;41913;51.030;3.706;2024-03-23T03:40:07;3.53;;;1.10;;
56045;SDS011;41913;51.030;3.706;2024-03-23T03:42:34;4.03;;;1.63;;
56045;SDS011;41913;51.030;3.706;2024-03-23T03:45:00;3.30;;;0.95;;
56045;SDS011;41913;51.030;3.706;2024-03-23T03:47:26;2.60;;;1.92;;
56045;SDS011;41913;51.030;3.706;2024-03-23T03:49:52;0.88;;;0.85;;
56045;SDS011;41913;51.030;3.706;2024-03-23T03:52:18;3.38;;;1.45;;
56045;SDS011;41913;51.030;3.706;2024-03-23T03:54:43;2.30;;;1.45;;
56045;SDS011;41913;51.030;3.706;2024-03-23T03:57:09;2.30;;;1.75;;
56045;SDS011;41913;51.030;3.706;2024-03-23T03:59:35;1.95;;;1.23;;
56045;SDS011;41913;51.030;3.706;2024-03-23T04:02:01;2.47;;;1.65;;
56045;SDS011;41913;51.030;3.706;2024-03-23T04:04:26;3.53;;;1.58;;
56045;SDS011;41913;51.030;3.706;2024-03-23T04:07:01;3.38;;;1.52;;
56045;SDS011;41913;51.030;3.706;2024-03-23T04:09:27;3.38;;;1.40;;
56045;SDS011;41913;51.030;3.706;2024-03-23T04:11:55;3.13;;;1.52;;
56045;SDS011;41913;51.030;3.706;2024-03-23T04:14:21;2.90;;;1.42;;
56045;SDS011;41913;51.030;3.706;2024-03-23T04:16:47;1.90;;;1.25;;
56045;SDS011;41913;51.030;3.706;2024-03-23T04:19:12;2.40;;;1.38;;
56045;SDS011;41913;51.030;3.706;2024-03-23T04:21:39;1.42;;;1.02;;
56045;SDS011;41913;51.030;3.706;2024-03-23T04:24:05;1.98;;;1.35;;
56045;SDS011;41913;51.030;3.706;2024-03-23T04:26:41;1.20;;;1.10;;
56045;SDS011;41913;51.030;3.706;2024-03-23T04:29:07;3.45;;;1.00;;
56045;SDS011;41913;51.030;3.706;2024-03-23T04:31:34;1.83;;;1.23;;
56045;SDS011;41913;51.030;3.706;2024-03-23T04:34:01;3.15;;;0.90;;
56045;SDS011;41913;51.030;3.706;2024-03-23T04:36:27;2.80;;;1.27;;
56045;SDS011;41913;51.030;3.706;2024-03-23T04:38:53;3.33;;;1.42;;
56045;SDS011;41913;51.030;3.706;2024-03-23T04:41:19;2.55;;;1.02;;
56045;SDS011;41913;51.030;3.706;2024-03-23T04:43:45;1.58;;;0.90;;
56045;SDS011;41913;51.030;3.706;2024-03-23T04:46:11;2.97;;;1.52;;
56045;SDS011;41913;51.030;3.706;2024-03-23T04:48:37;2.13;;;1.30;;
56045;SDS011;41913;51.030;3.706;2024-03-23T04:51:03;4.00;;;1.23;;
56045;SDS011;41913;51.030;3.706;2024-03-23T04:53:29;4.18;;;1.42;;
56045;SDS011;41913;51.030;3.706;2024-03-23T04:58:28;3.50;;;1.33;;
56045;SDS011;41913;51.030;3.706;2024-03-23T05:03:25;3.35;;;1.33;;
56045;SDS011;41913;51.030;3.706;2024-03-23T05:05:51;2.70;;;1.20;;
56045;SDS011;41913;51.030;3.706;2024-03-23T05:08:17;1.33;;;1.00;;
56045;SDS011;41913;51.030;3.706;2024-03-23T05:10:43;2.85;;;0.95;;
56045;SDS011;41913;51.030;3.706;2024-03-23T05:13:09;1.42;;;1.00;;
56045;SDS011;41913;51.030;3.706;2024-03-23T05:15:35;2.97;;;1.50;;
56045;SDS011;41913;51.030;3.706;2024-03-23T05:18:03;4.53;;;1.25;;
56045;SDS011;41913;51.030;3.706;2024-03-23T05:20:30;1.73;;;1.15;;
56045;SDS011;41913;51.030;3.706;2024-03-23T05:22:56;2.35;;;1.40;;
56045;SDS011;41913;51.030;3.706;2024-03-23T05:25:22;7.28;;;1.45;;
56045;SDS011;41913;51.030;3.706;2024-03-23T05:27:48;5.40;;;1.50;;
56045;SDS011;41913;51.030;3.706;2024-03-23T05:30:14;3.42;;;1.20;;
56045;SDS011;41913;51.030;3.706;2024-03-23T05:32:40;2.70;;;1.23;;
56045;SDS011;41913;51.030;3.706;2024-03-23T05:35:09;1.50;;;0.95;;
56045;SDS011;41913;51.030;3.706;2024-03-23T05:37:34;3.08;;;1.38;;
56045;SDS011;41913;51.030;3.706;2024-03-23T05:40:01;1.38;;;0.90;;
56045;SDS011;41913;51.030;3.706;2024-03-23T05:42:31;1.58;;;1.02;;
56045;SDS011;41913;51.030;3.706;2024-03-23T05:44:57;2.60;;;1.23;;
56045;SDS011;41913;51.030;3.706;2024-03-23T05:47:23;2.67;;;1.30;;
56045;SDS011;41913;51.030;3.706;2024-03-23T05:49:49;1.85;;;1.10;;
56045;SDS011;41913;51.030;3.706;2024-03-23T05:52:17;1.00;;;0.90;;
56045;SDS011;41913;51.030;3.706;2024-03-23T05:54:44;3.33;;;1.27;;
56045;SDS011;41913;51.030;3.706;2024-03-23T05:57:10;1.17;;;0.90;;
56045;SDS011;41913;51.030;3.706;2024-03-23T05:59:37;5.07;;;1.85;;
56045;SDS011;41913;51.030;3.706;2024-03-23T06:02:03;1.95;;;1.33;;
56045;SDS011;41913;51.030;3.706;2024-03-23T06:04:29;1.55;;;1.23;;
56045;SDS011;41913;51.030;3.706;2024-03-23T06:06:54;3.58;;;1.25;;
56045;SDS011;41913;51.030;3.706;2024-03-23T06:09:20;3.50;;;0.98;;
56045;SDS011;41913;51.030;3.706;2024-03-23T06:11:46;4.15;;;0.90;;
56045;SDS011;41913;51.030;3.706;2024-03-23T06:14:13;2.13;;;1.00;;
56045;SDS011;41913;51.030;3.706;2024-03-23T06:16:39;1.38;;;0.80;;
56045;SDS011;41913;51.030;3.706;2024-03-23T06:19:05;1.65;;;0.95;;
56045;SDS011;41913;51.030;3.706;2024-03-23T06:21:32;3.45;;;1.60;;
56045;SDS011;41913;51.030;3.706;2024-03-23T06:23:58;2.67;;;0.88;;
56045;SDS011;41913;51.030;3.706;2024-03-23T06:26:25;3.05;;;1.10;;
56045;SDS011;41913;51.030;3.706;2024-03-23T06:28:52;3.58;;;1.08;;
56045;SDS011;41913;51.030;3.706;2024-03-23T06:31:18;2.28;;;1.30;;
56045;SDS011;41913;51.030;3.706;2024-03-23T06:33:43;2.00;;;1.35;;
56045;SDS011;41913;51.030;3.706;2024-03-23T06:36:11;2.72;;;1.10;;
56045;SDS011;41913;51.030;3.706;2024-03-23T06:38:37;2.88;;;1.35;;
56045;SDS011;41913;51.030;3.706;2024-03-23T06:41:07;1.48;;;1.35;;
56045;SDS011;41913;51.030;3.706;2024-03-23T06:43:33;2.95;;;0.88;;
56045;SDS011;41913;51.030;3.706;2024-03-23T06:46:01;5.65;;;1.05;;
56045;SDS011;41913;51.030;3.706;2024-03-23T06:48:30;4.97;;;1.67;;
56045;SDS011;41913;51.030;3.706;2024-03-23T06:50:56;4.43;;;1.48;;
56045;SDS011;41913;51.030;3.706;2024-03-23T06:53:22;19.85;;;3.30;;
56045;SDS011;41913;51.030;3.706;2024-03-23T06:55:52;6.90;;;1.80;;
56045;SDS011;41913;51.030;3.706;2024-03-23T06:58:26;15.80;;;2.58;;
56045;SDS011;41913;51.030;3.706;2024-03-23T07:00:52;8.52;;;2.30;;
56045;SDS011;41913;51.030;3.706;2024-03-23T07:03:17;18.60;;;2.78;;
56045;SDS011;41913;51.030;3.706;2024-03-23T07:05:43;14.25;;;2.45;;
56045;SDS011;41913;51.030;3.706;2024-03-23T07:08:11;15.30;;;3.00;;
56045;SDS011;41913;51.030;3.706;2024-03-23T07:10:41;16.70;;;2.67;;
56045;SDS011;41913;51.030;3.706;2024-03-23T07:13:10;17.05;;;2.47;;
56045;SDS011;41913;51.030;3.706;2024-03-23T07:15:37;12.05;;;2.65;;
56045;SDS011;41913;51.030;3.706;2024-03-23T07:18:05;9.10;;;2.40;;
56045;SDS011;41913;51.030;3.706;2024-03-23T07:20:31;8.60;;;2.40;;
56045;SDS011;41913;51.030;3.706;2024-03-23T07:22:57;3.35;;;1.88;;
56045;SDS011;41913;51.030;3.706;2024-03-23T07:25:23;10.70;;;2.90;;
56045;SDS011;41913;51.030;3.706;2024-03-23T07:27:50;13.65;;;3.20;;
56045;SDS011;41913;51.030;3.706;2024-03-23T07:30:16;7.32;;;2.65;;
56045;SDS011;41913;51.030;3.706;2024-03-23T07:32:43;4.97;;;2.00;;
56045;SDS011;41913;51.030;3.706;2024-03-23T07:35:11;3.83;;;1.48;;
56045;SDS011;41913;51.030;3.706;2024-03-23T07:37:36;5.70;;;1.85;;
56045;SDS011;41913;51.030;3.706;2024-03-23T07:40:02;5.55;;;1.95;;
56045;SDS011;41913;51.030;3.706;2024-03-23T07:42:29;2.38;;;1.92;;
56045;SDS011;41913;51.030;3.706;2024-03-23T07:44:54;2.70;;;2.28;;
56045;SDS011;41913;51.030;3.706;2024-03-23T07:47:22;5.00;;;2.47;;
56045;SDS011;41913;51.030;3.706;2024-03-23T07:49:49;7.78;;;2.60;;
56045;SDS011;41913;51.030;3.706;2024-03-23T07:52:15;4.93;;;2.47;;
56045;SDS011;41913;51.030;3.706;2024-03-23T07:54:41;3.92;;;2.13;;
56045;SDS011;41913;51.030;3.706;2024-03-23T07:57:07;2.92;;;2.03;;
56045;SDS011;41913;51.030;3.706;2024-03-23T07:59:33;4.03;;;2.65;;
56045;SDS011;41913;51.030;3.706;2024-03-23T08:01:59;2.80;;;1.80;;
56045;SDS011;41913;51.030;3.706;2024-03-23T08:04:27;11.45;;;2.70;;
56045;SDS011;41913;51.030;3.706;2024-03-23T08:06:53;5.90;;;1.88;;
56045;SDS011;41913;51.030;3.706;2024-03-23T08:09:19;5.70;;;2.17;;
56045;SDS011;41913;51.030;3.706;2024-03-23T08:11:45;2.67;;;1.63;;
56045;SDS011;41913;51.030;3.706;2024-03-23T08:14:13;9.95;;;1.70;;
56045;SDS011;41913;51.030;3.706;2024-03-23T08:16:42;3.80;;;1.90;;
56045;SDS011;41913;51.030;3.706;2024-03-23T08:19:13;15.65;;;2.10;;
56045;SDS011;41913;51.030;3.706;2024-03-23T08:21:41;16.48;;;2.92;;
56045;SDS011;41913;51.030;3.706;2024-03-23T08:26:38;6.53;;;1.35;;
56045;SDS011;41913;51.030;3.706;2024-03-23T08:29:07;4.85;;;1.65;;
56045;SDS011;41913;51.030;3.706;2024-03-23T08:31:32;3.10;;;1.15;;
56045;SDS011;41913;51.030;3.706;2024-03-23T08:33:59;4.80;;;1.48;;
56045;SDS011;41913;51.030;3.706;2024-03-23T08:36:25;12.27;;;2.65;;
56045;SDS011;41913;51.030;3.706;2024-03-23T08:38:51;5.70;;;1.48;;
56045;SDS011;41913;51.030;3.706;2024-03-23T08:41:19;6.63;;;1.73;;
56045;SDS011;41913;51.030;3.706;2024-03-23T08:43:44;5.10;;;1.75;;
56045;SDS011;41913;51.030;3.706;2024-03-23T08:46:11;2.40;;;1.30;;
56045;SDS011;41913;51.030;3.706;2024-03-23T08:48:39;6.13;;;1.17;;
56045;SDS011;41913;51.030;3.706;2024-03-23T08:51:08;1.77;;;1.35;;
56045;SDS011;41913;51.030;3.706;2024-03-23T08:53:35;3.70;;;1.17;;
56045;SDS011;41913;51.030;3.706;2024-03-23T08:56:02;4.38;;;1.15;;
56045;SDS011;41913;51.030;3.706;2024-03-23T08:58:29;19.08;;;1.75;;
56045;SDS011;41913;51.030;3.706;2024-03-23T09:00:57;2.97;;;1.33;;
56045;SDS011;41913;51.030;3.706;2024-03-23T09:03:28;4.15;;;1.27;;
56045;SDS011;41913;51.030;3.706;2024-03-23T09:05:54;6.80;;;1.65;;
56045;SDS011;41913;51.030;3.706;2024-03-23T09:08:21;2.45;;;1.23;;
56045;SDS011;41913;51.030;3.706;2024-03-23T09:10:47;4.18;;;1.50;;
56045;SDS011;41913;51.030;3.706;2024-03-23T09:13:13;2.67;;;1.20;;
56045;SDS011;41913;51.030;3.706;2024-03-23T09:15:54;3.90;;;1.52;;
56045;SDS011;41913;51.030;3.706;2024-03-23T09:18:22;2.13;;;1.08;;
56045;SDS011;41913;51.030;3.706;2024-03-23T09:20:50;3.05;;;1.65;;
56045;SDS011;41913;51.030;3.706;2024-03-23T09:23:15;2.15;;;1.40;;
56045;SDS011;41913;51.030;3.706;2024-03-23T09:28:10;4.47;;;1.23;;
56045;SDS011;41913;51.030;3.706;2024-03-23T09:30:36;4.28;;;0.95;;
56045;SDS011;41913;51.030;3.706;2024-03-23T09:33:10;3.28;;;1.83;;
56045;SDS011;41913;51.030;3.706;2024-03-23T09:35:37;1.60;;;1.50;;
56045;SDS011;41913;51.030;3.706;2024-03-23T09:38:07;4.13;;;1.38;;
56045;SDS011;41913;51.030;3.706;2024-03-23T09:40:34;4.70;;;1.25;;
56045;SDS011;41913;51.030;3.706;2024-03-23T09:43:06;5.45;;;1.40;;
56045;SDS011;41913;51.030;3.706;2024-03-23T09:45:34;7.82;;;1.85;;
56045;SDS011;41913;51.030;3.706;2024-03-23T09:48:04;7.90;;;2.90;;
56045;SDS011;41913;51.030;3.706;2024-03-23T09:50:31;2.33;;;1.63;;
56045;SDS011;41913;51.030;3.706;2024-03-23T09:52:56;7.05;;;1.88;;
56045;SDS011;41913;51.030;3.706;2024-03-23T09:55:22;4.25;;;1.77;;
56045;SDS011;41913;51.030;3.706;2024-03-23T09:57:49;4.50;;;1.48;;
56045;SDS011;41913;51.030;3.706;2024-03-23T10:00:15;2.70;;;1.50;;
56045;SDS011;41913;51.030;3.706;2024-03-23T10:02:41;9.15;;;2.25;;
56045;SDS011;41913;51.030;3.706;2024-03-23T10:05:28;4.93;;;1.55;;
56045;SDS011;41913;51.030;3.706;2024-03-23T10:07:54;3.20;;;1.67;;
56045;SDS011;41913;51.030;3.706;2024-03-23T10:10:20;3.00;;;1.58;;
56045;SDS011;41913;51.030;3.706;2024-03-23T10:12:48;2.90;;;1.83;;
56045;SDS011;41913;51.030;3.706;2024-03-23T10:15:23;8.70;;;2.00;;
56045;SDS011;41913;51.030;3.706;2024-03-23T10:17:50;2.50;;;1.40;;
56045;SDS011;41913;51.030;3.706;2024-03-23T10:20:20;3.50;;;1.70;;
56045;SDS011;41913;51.030;3.706;2024-03-23T10:22:48;2.85;;;1.60;;
56045;SDS011;41913;51.030;3.706;2024-03-23T10:25:16;2.78;;;2.08;;
56045;SDS011;41913;51.030;3.706;2024-03-23T10:27:42;2.00;;;1.60;;
56045;SDS011;41913;51.030;3.706;2024-03-23T10:30:13;5.28;;;1.73;;
56045;SDS011;41913;51.030;3.706;2024-03-23T10:32:42;1.98;;;1.52;;
56045;SDS011;41913;51.030;3.706;2024-03-23T10:35:17;4.28;;;1.55;;
56045;SDS011;41913;51.030;3.706;2024-03-23T10:37:47;7.90;;;1.98;;
56045;SDS011;41913;51.030;3.706;2024-03-23T10:40:16;5.35;;;1.63;;
56045;SDS011;41913;51.030;3.706;2024-03-23T10:42:43;4.88;;;1.48;;
56045;SDS011;41913;51.030;3.706;2024-03-23T10:45:10;4.53;;;1.13;;
56045;SDS011;41913;51.030;3.706;2024-03-23T10:47:38;4.70;;;1.45;;
56045;SDS011;41913;51.030;3.706;2024-03-23T10:50:04;1.75;;;1.40;;
56045;SDS011;41913;51.030;3.706;2024-03-23T10:52:34;1.10;;;1.00;;
56045;SDS011;41913;51.030;3.706;2024-03-23T10:55:04;3.33;;;1.27;;
56045;SDS011;41913;51.030;3.706;2024-03-23T11:00:05;1.95;;;1.20;;
56045;SDS011;41913;51.030;3.706;2024-03-23T11:02:34;3.45;;;1.40;;
56045;SDS011;41913;51.030;3.706;2024-03-23T11:05:01;3.20;;;1.40;;
56045;SDS011;41913;51.030;3.706;2024-03-23T11:09:58;4.30;;;2.00;;
56045;SDS011;41913;51.030;3.706;2024-03-23T11:12:28;2.25;;;1.02;;
56045;SDS011;41913;51.030;3.706;2024-03-23T11:17:33;2.08;;;1.48;;
56045;SDS011;41913;51.030;3.706;2024-03-23T11:27:53;4.63;;;1.48;;
56045;SDS011;41913;51.030;3.706;2024-03-23T11:30:24;1.25;;;1.00;;
56045;SDS011;41913;51.030;3.706;2024-03-23T11:32:52;1.60;;;1.00;;
56045;SDS011;41913;51.030;3.706;2024-03-23T11:38:16;2.67;;;1.20;;
56045;SDS011;41913;51.030;3.706;2024-03-23T11:40:50;4.10;;;1.25;;
56045;SDS011;41913;51.030;3.706;2024-03-23T11:45:50;2.20;;;0.95;;
56045;SDS011;41913;51.030;3.706;2024-03-23T11:48:21;4.28;;;1.15;;
56045;SDS011;41913;51.030;3.706;2024-03-23T11:50:48;1.85;;;1.50;;
56045;SDS011;41913;51.030;3.706;2024-03-23T11:53:16;3.78;;;1.10;;
56045;SDS011;41913;51.030;3.706;2024-03-23T11:55:50;2.90;;;1.23;;
56045;SDS011;41913;51.030;3.706;2024-03-23T11:58:18;1.05;;;1.05;;
56045;SDS011;41913;51.030;3.706;2024-03-23T12:00:52;3.25;;;1.58;;
56045;SDS011;41913;51.030;3.706;2024-03-23T12:03:19;2.67;;;0.95;;
56045;SDS011;41913;51.030;3.706;2024-03-23T12:05:52;0.88;;;0.77;;
56045;SDS011;41913;51.030;3.706;2024-03-23T12:08:28;3.47;;;1.38;;
56045;SDS011;41913;51.030;3.706;2024-03-23T12:13:41;6.03;;;1.35;;
56045;SDS011;41913;51.030;3.706;2024-03-23T12:16:15;2.78;;;1.25;;
56045;SDS011;41913;51.030;3.706;2024-03-23T12:18:43;1.60;;;0.95;;
56045;SDS011;41913;51.030;3.706;2024-03-23T12:21:10;1.50;;;1.30;;
56045;SDS011;41913;51.030;3.706;2024-03-23T12:23:36;1.25;;;1.10;;
56045;SDS011;41913;51.030;3.706;2024-03-23T12:26:04;2.05;;;1.35;;
56045;SDS011;41913;51.030;3.706;2024-03-23T12:28:31;3.17;;;1.25;;
56045;SDS011;41913;51.030;3.706;2024-03-23T12:30:57;4.95;;;1.25;;
56045;SDS011;41913;51.030;3.706;2024-03-23T12:33:23;1.50;;;0.90;;
56045;SDS011;41913;51.030;3.706;2024-03-23T12:35:54;2.00;;;1.02;;
56045;SDS011;41913;51.030;3.706;2024-03-23T12:38:20;4.13;;;1.48;;
56045;SDS011;41913;51.030;3.706;2024-03-23T12:40:49;3.08;;;1.08;;
56045;SDS011;41913;51.030;3.706;2024-03-23T12:43:18;1.23;;;0.90;;
56045;SDS011;41913;51.030;3.706;2024-03-23T12:45:47;4.75;;;0.70;;
56045;SDS011;41913;51.030;3.706;2024-03-23T12:48:14;2.97;;;1.42;;
56045;SDS011;41913;51.030;3.706;2024-03-23T12:50:40;2.78;;;1.35;;
56045;SDS011;41913;51.030;3.706;2024-03-23T12:53:06;1.27;;;0.95;;
56045;SDS011;41913;51.030;3.706;2024-03-23T12:55:32;4.03;;;1.15;;
56045;SDS011;41913;51.030;3.706;2024-03-23T12:57:59;5.20;;;1.45;;
56045;SDS011;41913;51.030;3.706;2024-03-23T13:00:25;2.38;;;1.58;;
56045;SDS011;41913;51.030;3.706;2024-03-23T13:02:51;2.47;;;1.23;;
56045;SDS011;41913;51.030;3.706;2024-03-23T13:05:17;3.70;;;1.33;;
56045;SDS011;41913;51.030;3.706;2024-03-23T13:07:43;3.80;;;1.33;;
56045;SDS011;41913;51.030;3.706;2024-03-23T13:10:09;1.83;;;1.17;;
56045;SDS011;41913;51.030;3.706;2024-03-23T13:12:35;2.85;;;1.48;;
56045;SDS011;41913;51.030;3.706;2024-03-23T13:15:01;1.25;;;1.00;;
56045;SDS011;41913;51.030;3.706;2024-03-23T13:17:27;2.47;;;1.58;;
56045;SDS011;41913;51.030;3.706;2024-03-23T13:19:54;2.35;;;0.93;;
56045;SDS011;41913;51.030;3.706;2024-03-23T13:22:21;5.35;;;1.10;;
56045;SDS011;41913;51.030;3.706;2024-03-23T13:24:49;6.32;;;0.90;;
56045;SDS011;41913;51.030;3.706;2024-03-23T13:27:15;0.63;;;0.60;;
56045;SDS011;41913;51.030;3.706;2024-03-23T13:29:41;1.40;;;1.20;;
56045;SDS011;41913;51.030;3.706;2024-03-23T13:32:07;2.90;;;0.85;;
56045;SDS011;41913;51.030;3.706;2024-03-23T13:34:34;1.67;;;0.90;;
56045;SDS011;41913;51.030;3.706;2024-03-23T13:37:00;2.50;;;0.90;;
56045;SDS011;41913;51.030;3.706;2024-03-23T13:39:26;2.60;;;1.25;;
56045;SDS011;41913;51.030;3.706;2024-03-23T13:41:55;1.80;;;1.27;;
56045;SDS011;41913;51.030;3.706;2024-03-23T13:44:21;3.10;;;0.90;;
56045;SDS011;41913;51.030;3.706;2024-03-23T13:46:47;1.20;;;0.90;;
56045;SDS011;41913;51.030;3.706;2024-03-23T13:49:29;4.18;;;1.30;;
56045;SDS011;41913;51.030;3.706;2024-03-23T13:51:58;1.10;;;0.82;;
56045;SDS011;41913;51.030;3.706;2024-03-23T13:54:25;2.25;;;0.90;;
56045;SDS011;41913;51.030;3.706;2024-03-23T13:56:52;2.60;;;1.75;;
56045;SDS011;41913;51.030;3.706;2024-03-23T13:59:19;1.63;;;0.90;;
56045;SDS011;41913;51.030;3.706;2024-03-23T14:01:46;1.48;;;0.80;;
56045;SDS011;41913;51.030;3.706;2024-03-23T14:04:13;3.38;;;1.08;;
56045;SDS011;41913;51.030;3.706;2024-03-23T14:06:41;2.85;;;1.00;;
56045;SDS011;41913;51.030;3.706;2024-03-23T14:09:07;3.05;;;0.85;;
56045;SDS011;41913;51.030;3.706;2024-03-23T14:11:36;3.05;;;0.93;;
56045;SDS011;41913;51.030;3.706;2024-03-23T14:14:02;2.22;;;0.98;;
56045;SDS011;41913;51.030;3.706;2024-03-23T14:16:29;5.15;;;0.90;;
56045;SDS011;41913;51.030;3.706;2024-03-23T14:18:55;1.92;;;0.77;;
56045;SDS011;41913;51.030;3.706;2024-03-23T14:21:21;2.63;;;1.00;;
56045;SDS011;41913;51.030;3.706;2024-03-23T14:23:47;1.73;;;1.00;;
56045;SDS011;41913;51.030;3.706;2024-03-23T14:26:13;1.05;;;0.70;;
56045;SDS011;41913;51.030;3.706;2024-03-23T14:28:39;1.83;;;1.08;;
56045;SDS011;41913;51.030;3.706;2024-03-23T14:31:07;2.60;;;1.10;;
56045;SDS011;41913;51.030;3.706;2024-03-23T14:33:36;2.22;;;1.25;;
56045;SDS011;41913;51.030;3.706;2024-03-23T14:36:04;2.00;;;0.90;;
56045;SDS011;41913;51.030;3.706;2024-03-23T14:38:31;1.02;;;0.65;;
56045;SDS011;41913;51.030;3.706;2024-03-23T14:41:00;1.95;;;0.93;;
56045;SDS011;41913;51.030;3.706;2024-03-23T14:43:28;1.52;;;0.75;;
56045;SDS011;41913;51.030;3.706;2024-03-23T14:46:36;1.65;;;0.73;;
56045;SDS011;41913;51.030;3.706;2024-03-23T14:48:43;2.10;;;0.60;;
56045;SDS011;41913;51.030;3.706;2024-03-23T14:51:09;2.58;;;0.90;;
56045;SDS011;41913;51.030;3.706;2024-03-23T14:53:36;1.48;;;0.70;;
56045;SDS011;41913;51.030;3.706;2024-03-23T14:56:05;2.88;;;0.98;;
56045;SDS011;41913;51.030;3.706;2024-03-23T14:58:32;1.98;;;0.63;;
56045;SDS011;41913;51.030;3.706;2024-03-23T15:01:03;3.25;;;0.65;;
56045;SDS011;41913;51.030;3.706;2024-03-23T15:03:39;0.43;;;0.40;;
56045;SDS011;41913;51.030;3.706;2024-03-23T15:06:05;0.95;;;0.45;;
56045;SDS011;41913;51.030;3.706;2024-03-23T15:08:31;1.65;;;0.60;;
56045;SDS011;41913;51.030;3.706;2024-03-23T15:11:00;3.22;;;1.20;;
56045;SDS011;41913;51.030;3.706;2024-03-23T15:13:36;0.70;;;0.70;;
56045;SDS011;41913;51.030;3.706;2024-03-23T15:16:03;1.95;;;0.70;;
56045;SDS011;41913;51.030;3.706;2024-03-23T15:18:31;2.50;;;0.80;;
56045;SDS011;41913;51.030;3.706;2024-03-23T15:20:58;1.92;;;0.88;;
56045;SDS011;41913;51.030;3.706;2024-03-23T15:23:29;0.95;;;0.88;;
56045;SDS011;41913;51.030;3.706;2024-03-23T15:28:24;2.20;;;0.75;;
56045;SDS011;41913;51.030;3.706;2024-03-23T15:31:03;2.50;;;0.70;;
56045;SDS011;41913;51.030;3.706;2024-03-23T15:33:34;4.65;;;0.70;;
56045;SDS011;41913;51.030;3.706;2024-03-23T15:36:00;4.50;;;1.00;;
56045;SDS011;41913;51.030;3.706;2024-03-23T15:38:33;1.33;;;0.90;;
56045;SDS011;41913;51.030;3.706;2024-03-23T15:41:00;3.17;;;1.27;;
56045;SDS011;41913;51.030;3.706;2024-03-23T15:43:26;1.90;;;1.13;;
56045;SDS011;41913;51.030;3.706;2024-03-23T15:45:53;2.75;;;0.63;;
56045;SDS011;41913;51.030;3.706;2024-03-23T15:48:25;3.15;;;0.88;;
56045;SDS011;41913;51.030;3.706;2024-03-23T15:50:52;2.03;;;0.98;;
56045;SDS011;41913;51.030;3.706;2024-03-23T15:53:21;2.28;;;0.88;;
56045;SDS011;41913;51.030;3.706;2024-03-23T15:55:54;2.00;;;0.68;;
56045;SDS011;41913;51.030;3.706;2024-03-23T15:58:24;1.90;;;1.02;;
56045;SDS011;41913;51.030;3.706;2024-03-23T16:00:56;0.93;;;0.70;;
56045;SDS011;41913;51.030;3.706;2024-03-23T16:03:23;2.75;;;1.33;;
56045;SDS011;41913;51.030;3.706;2024-03-23T16:05:53;2.17;;;1.10;;
56045;SDS011;41913;51.030;3.706;2024-03-23T16:08:20;1.25;;;0.70;;
56045;SDS011;41913;51.030;3.706;2024-03-23T16:10:46;1.95;;;0.80;;
56045;SDS011;41913;51.030;3.706;2024-03-23T16:13:15;0.70;;;0.70;;
56045;SDS011;41913;51.030;3.706;2024-03-23T16:15:44;0.85;;;0.80;;
56045;SDS011;41913;51.030;3.706;2024-03-23T16:18:11;1.85;;;0.80;;
56045;SDS011;41913;51.030;3.706;2024-03-23T16:20:37;2.08;;;0.95;;
56045;SDS011;41913;51.030;3.706;2024-03-23T16:23:03;4.18;;;1.08;;